sensor_id;sensor_type;location;lat;lon;timestamp;P1;durP1;ratioP1;P2;durP2;ratioP2
76284;SDS011;65096;50.998;7.098;2023-02-19T00:01:22;7.00;;;3.60;;
76284;SDS011;65096;50.998;7.098;2023-02-19T00:03:50;7.80;;;3.13;;
76284;SDS011;65096;50.998;7.098;2023-02-19T00:06:20;6.55;;;2.97;;
76284;SDS011;65096;50.998;7.098;2023-02-19T00:08:48;8.18;;;3.70;;
76284;SDS011;65096;50.998;7.098;2023-02-19T00:11:16;7.40;;;3.47;;
76284;SDS011;65096;50.998;7.098;2023-02-19T00:13:45;8.15;;;3.97;;
76284;SDS011;65096;50.998;7.098;2023-02-19T00:16:13;8.13;;;3.53;;
76284;SDS011;65096;50.998;7.098;2023-02-19T00:18:41;6.90;;;3.42;;
76284;SDS011;65096;50.998;7.098;2023-02-19T00:21:08;7.95;;;3.70;;
76284;SDS011;65096;50.998;7.098;2023-02-19T00:23:37;7.45;;;3.63;;
76284;SDS011;65096;50.998;7.098;2023-02-19T00:26:04;8.50;;;3.90;;
76284;SDS011;65096;50.998;7.098;2023-02-19T00:28:32;8.73;;;4.00;;
76284;SDS011;65096;50.998;7.098;2023-02-19T00:31:02;8.82;;;4.07;;
76284;SDS011;65096;50.998;7.098;2023-02-19T00:33:31;8.38;;;3.95;;
76284;SDS011;65096;50.998;7.098;2023-02-19T00:35:58;9.15;;;4.13;;
76284;SDS011;65096;50.998;7.098;2023-02-19T00:38:26;10.05;;;4.30;;
76284;SDS011;65096;50.998;7.098;2023-02-19T00:40:54;8.82;;;4.70;;
76284;SDS011;65096;50.998;7.098;2023-02-19T00:43:23;7.95;;;3.85;;
76284;SDS011;65096;50.998;7.098;2023-02-19T00:45:50;7.38;;;3.92;;
76284;SDS011;65096;50.998;7.098;2023-02-19T00:48:17;9.13;;;4.07;;
76284;SDS011;65096;50.998;7.098;2023-02-19T00:50:46;7.60;;;4.20;;
76284;SDS011;65096;50.998;7.098;2023-02-19T00:53:13;10.55;;;4.38;;
76284;SDS011;65096;50.998;7.098;2023-02-19T00:55:40;7.88;;;3.85;;
76284;SDS011;65096;50.998;7.098;2023-02-19T00:58:09;9.13;;;4.40;;
76284;SDS011;65096;50.998;7.098;2023-02-19T01:00:35;8.65;;;4.47;;
76284;SDS011;65096;50.998;7.098;2023-02-19T01:03:02;9.68;;;4.20;;
76284;SDS011;65096;50.998;7.098;2023-02-19T01:05:29;8.48;;;3.97;;
76284;SDS011;65096;50.998;7.098;2023-02-19T01:07:55;9.13;;;4.47;;
76284;SDS011;65096;50.998;7.098;2023-02-19T01:10:22;8.07;;;3.75;;
76284;SDS011;65096;50.998;7.098;2023-02-19T01:12:49;9.75;;;4.50;;
76284;SDS011;65096;50.998;7.098;2023-02-19T01:15:17;8.45;;;4.25;;
76284;SDS011;65096;50.998;7.098;2023-02-19T01:17:44;8.15;;;4.43;;
76284;SDS011;65096;50.998;7.098;2023-02-19T01:20:10;9.73;;;4.30;;
76284;SDS011;65096;50.998;7.098;2023-02-19T01:22:37;7.38;;;3.70;;
76284;SDS011;65096;50.998;7.098;2023-02-19T01:25:04;8.68;;;4.47;;
76284;SDS011;65096;50.998;7.098;2023-02-19T01:27:34;8.50;;;4.40;;
76284;SDS011;65096;50.998;7.098;2023-02-19T01:30:00;7.00;;;3.35;;
76284;SDS011;65096;50.998;7.098;2023-02-19T01:32:28;8.07;;;4.05;;
76284;SDS011;65096;50.998;7.098;2023-02-19T01:34:55;6.68;;;3.10;;
76284;SDS011;65096;50.998;7.098;2023-02-19T01:37:22;7.82;;;3.92;;
76284;SDS011;65096;50.998;7.098;2023-02-19T01:39:49;9.30;;;4.25;;
76284;SDS011;65096;50.998;7.098;2023-02-19T01:42:15;9.02;;;4.35;;
76284;SDS011;65096;50.998;7.098;2023-02-19T01:47:51;10.32;;;4.82;;
76284;SDS011;65096;50.998;7.098;2023-02-19T01:50:23;7.70;;;4.10;;
76284;SDS011;65096;50.998;7.098;2023-02-19T01:52:52;9.27;;;3.97;;
76284;SDS011;65096;50.998;7.098;2023-02-19T01:55:19;8.18;;;4.20;;
76284;SDS011;65096;50.998;7.098;2023-02-19T01:57:47;7.68;;;3.80;;
76284;SDS011;65096;50.998;7.098;2023-02-19T02:00:18;9.40;;;4.13;;
76284;SDS011;65096;50.998;7.098;2023-02-19T02:02:50;8.90;;;3.90;;
76284;SDS011;65096;50.998;7.098;2023-02-19T02:05:23;8.55;;;3.90;;
76284;SDS011;65096;50.998;7.098;2023-02-19T02:08:01;8.77;;;3.80;;
76284;SDS011;65096;50.998;7.098;2023-02-19T02:10:46;8.02;;;3.97;;
76284;SDS011;65096;50.998;7.098;2023-02-19T02:13:13;7.75;;;3.58;;
76284;SDS011;65096;50.998;7.098;2023-02-19T02:15:42;7.90;;;3.85;;
76284;SDS011;65096;50.998;7.098;2023-02-19T02:18:19;11.30;;;4.70;;
76284;SDS011;65096;50.998;7.098;2023-02-19T02:23:56;9.90;;;4.47;;
76284;SDS011;65096;50.998;7.098;2023-02-19T02:26:40;9.05;;;4.05;;
76284;SDS011;65096;50.998;7.098;2023-02-19T02:29:25;8.20;;;3.72;;
76284;SDS011;65096;50.998;7.098;2023-02-19T02:32:04;11.88;;;4.80;;
76284;SDS011;65096;50.998;7.098;2023-02-19T02:34:38;10.32;;;4.60;;
76284;SDS011;65096;50.998;7.098;2023-02-19T02:37:11;10.80;;;4.20;;
76284;SDS011;65096;50.998;7.098;2023-02-19T02:39:39;9.98;;;5.03;;
76284;SDS011;65096;50.998;7.098;2023-02-19T02:42:07;9.93;;;4.50;;
76284;SDS011;65096;50.998;7.098;2023-02-19T02:44:51;10.65;;;5.18;;
76284;SDS011;65096;50.998;7.098;2023-02-19T02:47:33;10.75;;;4.28;;
76284;SDS011;65096;50.998;7.098;2023-02-19T02:50:09;12.40;;;4.85;;
76284;SDS011;65096;50.998;7.098;2023-02-19T02:52:39;12.68;;;5.45;;
76284;SDS011;65096;50.998;7.098;2023-02-19T02:55:25;10.82;;;4.93;;
76284;SDS011;65096;50.998;7.098;2023-02-19T02:58:00;10.05;;;4.80;;
76284;SDS011;65096;50.998;7.098;2023-02-19T03:00:27;10.55;;;4.50;;
76284;SDS011;65096;50.998;7.098;2023-02-19T03:03:22;12.38;;;5.43;;
76284;SDS011;65096;50.998;7.098;2023-02-19T03:05:51;14.68;;;5.68;;
76284;SDS011;65096;50.998;7.098;2023-02-19T03:08:24;11.80;;;5.47;;
76284;SDS011;65096;50.998;7.098;2023-02-19T03:10:55;11.57;;;5.68;;
76284;SDS011;65096;50.998;7.098;2023-02-19T03:13:46;12.57;;;5.47;;
76284;SDS011;65096;50.998;7.098;2023-02-19T03:16:32;13.80;;;5.65;;
76284;SDS011;65096;50.998;7.098;2023-02-19T03:19:21;12.85;;;5.88;;
76284;SDS011;65096;50.998;7.098;2023-02-19T03:21:53;13.55;;;6.22;;
76284;SDS011;65096;50.998;7.098;2023-02-19T03:24:25;8.45;;;3.92;;
76284;SDS011;65096;50.998;7.098;2023-02-19T03:27:13;13.48;;;6.45;;
76284;SDS011;65096;50.998;7.098;2023-02-19T03:29:44;12.13;;;5.93;;
76284;SDS011;65096;50.998;7.098;2023-02-19T03:32:14;16.55;;;6.75;;
76284;SDS011;65096;50.998;7.098;2023-02-19T03:34:47;12.45;;;5.57;;
76284;SDS011;65096;50.998;7.098;2023-02-19T03:37:19;10.27;;;4.40;;
76284;SDS011;65096;50.998;7.098;2023-02-19T03:39:50;11.20;;;4.78;;
76284;SDS011;65096;50.998;7.098;2023-02-19T03:42:20;16.25;;;5.47;;
76284;SDS011;65096;50.998;7.098;2023-02-19T03:47:46;12.82;;;5.88;;
76284;SDS011;65096;50.998;7.098;2023-02-19T03:50:20;13.52;;;5.90;;
76284;SDS011;65096;50.998;7.098;2023-02-19T03:52:54;14.85;;;6.45;;
76284;SDS011;65096;50.998;7.098;2023-02-19T03:55:30;13.88;;;6.28;;
76284;SDS011;65096;50.998;7.098;2023-02-19T03:58:04;14.95;;;6.47;;
76284;SDS011;65096;50.998;7.098;2023-02-19T04:00:37;13.02;;;5.95;;
76284;SDS011;65096;50.998;7.098;2023-02-19T04:03:10;14.77;;;6.25;;
76284;SDS011;65096;50.998;7.098;2023-02-19T04:05:45;15.85;;;6.32;;
76284;SDS011;65096;50.998;7.098;2023-02-19T04:08:18;13.10;;;5.85;;
76284;SDS011;65096;50.998;7.098;2023-02-19T04:10:46;14.95;;;7.65;;
76284;SDS011;65096;50.998;7.098;2023-02-19T04:13:17;13.82;;;6.05;;
76284;SDS011;65096;50.998;7.098;2023-02-19T04:15:47;15.65;;;6.72;;
76284;SDS011;65096;50.998;7.098;2023-02-19T04:18:19;16.02;;;7.55;;
76284;SDS011;65096;50.998;7.098;2023-02-19T04:20:51;14.55;;;6.13;;
76284;SDS011;65096;50.998;7.098;2023-02-19T04:23:20;17.35;;;6.35;;
76284;SDS011;65096;50.998;7.098;2023-02-19T04:25:51;15.07;;;7.13;;
76284;SDS011;65096;50.998;7.098;2023-02-19T04:28:21;17.60;;;6.70;;
76284;SDS011;65096;50.998;7.098;2023-02-19T04:30:48;15.80;;;7.03;;
76284;SDS011;65096;50.998;7.098;2023-02-19T04:33:15;16.75;;;7.22;;
76284;SDS011;65096;50.998;7.098;2023-02-19T04:35:41;14.88;;;7.03;;
76284;SDS011;65096;50.998;7.098;2023-02-19T04:38:10;15.77;;;7.57;;
76284;SDS011;65096;50.998;7.098;2023-02-19T04:40:38;15.25;;;7.20;;
76284;SDS011;65096;50.998;7.098;2023-02-19T04:43:05;13.52;;;6.45;;
76284;SDS011;65096;50.998;7.098;2023-02-19T04:45:31;18.58;;;7.50;;
76284;SDS011;65096;50.998;7.098;2023-02-19T04:47:58;17.60;;;7.45;;
76284;SDS011;65096;50.998;7.098;2023-02-19T04:50:25;18.73;;;7.90;;
76284;SDS011;65096;50.998;7.098;2023-02-19T04:52:51;17.55;;;7.32;;
76284;SDS011;65096;50.998;7.098;2023-02-19T04:55:19;15.18;;;7.38;;
76284;SDS011;65096;50.998;7.098;2023-02-19T04:57:46;16.73;;;6.90;;
76284;SDS011;65096;50.998;7.098;2023-02-19T05:00:13;17.23;;;7.75;;
76284;SDS011;65096;50.998;7.098;2023-02-19T05:02:40;16.33;;;6.30;;
76284;SDS011;65096;50.998;7.098;2023-02-19T05:05:07;17.52;;;7.40;;
76284;SDS011;65096;50.998;7.098;2023-02-19T05:07:33;16.73;;;8.07;;
76284;SDS011;65096;50.998;7.098;2023-02-19T05:10:00;19.60;;;8.43;;
76284;SDS011;65096;50.998;7.098;2023-02-19T05:12:29;18.05;;;8.00;;
76284;SDS011;65096;50.998;7.098;2023-02-19T05:14:56;18.45;;;8.18;;
76284;SDS011;65096;50.998;7.098;2023-02-19T05:17:23;17.10;;;7.97;;
76284;SDS011;65096;50.998;7.098;2023-02-19T05:19:49;17.88;;;8.57;;
76284;SDS011;65096;50.998;7.098;2023-02-19T05:22:16;16.38;;;7.65;;
76284;SDS011;65096;50.998;7.098;2023-02-19T05:24:43;16.77;;;7.63;;
76284;SDS011;65096;50.998;7.098;2023-02-19T05:27:09;19.55;;;7.63;;
76284;SDS011;65096;50.998;7.098;2023-02-19T05:29:37;16.52;;;7.03;;
76284;SDS011;65096;50.998;7.098;2023-02-19T05:32:04;19.17;;;8.38;;
76284;SDS011;65096;50.998;7.098;2023-02-19T05:34:31;18.00;;;8.07;;
76284;SDS011;65096;50.998;7.098;2023-02-19T05:36:58;16.13;;;7.75;;
76284;SDS011;65096;50.998;7.098;2023-02-19T05:39:24;18.08;;;8.57;;
76284;SDS011;65096;50.998;7.098;2023-02-19T05:41:51;18.10;;;9.10;;
76284;SDS011;65096;50.998;7.098;2023-02-19T05:44:18;19.08;;;8.57;;
76284;SDS011;65096;50.998;7.098;2023-02-19T05:46:46;20.55;;;8.77;;
76284;SDS011;65096;50.998;7.098;2023-02-19T05:49:12;21.10;;;9.57;;
76284;SDS011;65096;50.998;7.098;2023-02-19T05:51:39;19.88;;;8.98;;
76284;SDS011;65096;50.998;7.098;2023-02-19T05:54:06;22.02;;;9.95;;
76284;SDS011;65096;50.998;7.098;2023-02-19T05:56:33;24.65;;;9.65;;
76284;SDS011;65096;50.998;7.098;2023-02-19T05:59:01;22.40;;;10.82;;
76284;SDS011;65096;50.998;7.098;2023-02-19T06:01:30;21.50;;;10.68;;
76284;SDS011;65096;50.998;7.098;2023-02-19T06:03:58;25.17;;;10.90;;
76284;SDS011;65096;50.998;7.098;2023-02-19T06:06:27;17.50;;;7.65;;
76284;SDS011;65096;50.998;7.098;2023-02-19T06:08:54;19.40;;;8.98;;
76284;SDS011;65096;50.998;7.098;2023-02-19T06:11:21;21.27;;;9.98;;
76284;SDS011;65096;50.998;7.098;2023-02-19T06:13:48;18.52;;;9.23;;
76284;SDS011;65096;50.998;7.098;2023-02-19T06:16:15;19.33;;;8.98;;
76284;SDS011;65096;50.998;7.098;2023-02-19T06:18:42;19.60;;;9.00;;
76284;SDS011;65096;50.998;7.098;2023-02-19T06:21:11;19.15;;;9.70;;
76284;SDS011;65096;50.998;7.098;2023-02-19T06:23:38;19.20;;;9.27;;
76284;SDS011;65096;50.998;7.098;2023-02-19T06:26:06;16.33;;;8.45;;
76284;SDS011;65096;50.998;7.098;2023-02-19T06:28:33;19.98;;;10.05;;
76284;SDS011;65096;50.998;7.098;2023-02-19T06:31:00;21.58;;;9.82;;
76284;SDS011;65096;50.998;7.098;2023-02-19T06:33:27;18.27;;;9.90;;
76284;SDS011;65096;50.998;7.098;2023-02-19T06:35:56;17.70;;;9.20;;
76284;SDS011;65096;50.998;7.098;2023-02-19T06:38:25;18.52;;;9.25;;
76284;SDS011;65096;50.998;7.098;2023-02-19T06:40:52;19.98;;;10.10;;
76284;SDS011;65096;50.998;7.098;2023-02-19T06:43:19;17.25;;;9.13;;
76284;SDS011;65096;50.998;7.098;2023-02-19T06:45:46;18.80;;;9.55;;
76284;SDS011;65096;50.998;7.098;2023-02-19T06:48:12;16.35;;;8.27;;
76284;SDS011;65096;50.998;7.098;2023-02-19T06:50:41;18.95;;;9.43;;
76284;SDS011;65096;50.998;7.098;2023-02-19T06:53:08;17.23;;;9.05;;
76284;SDS011;65096;50.998;7.098;2023-02-19T06:55:37;18.35;;;9.20;;
76284;SDS011;65096;50.998;7.098;2023-02-19T06:58:04;18.27;;;9.25;;
76284;SDS011;65096;50.998;7.098;2023-02-19T07:00:32;21.50;;;10.70;;
76284;SDS011;65096;50.998;7.098;2023-02-19T07:03:02;17.65;;;8.55;;
76284;SDS011;65096;50.998;7.098;2023-02-19T07:05:29;16.67;;;8.02;;
76284;SDS011;65096;50.998;7.098;2023-02-19T07:07:55;18.73;;;8.95;;
76284;SDS011;65096;50.998;7.098;2023-02-19T07:10:22;17.60;;;8.57;;
76284;SDS011;65096;50.998;7.098;2023-02-19T07:12:50;20.00;;;8.77;;
76284;SDS011;65096;50.998;7.098;2023-02-19T07:15:17;16.52;;;8.25;;
76284;SDS011;65096;50.998;7.098;2023-02-19T07:17:44;18.40;;;8.05;;
76284;SDS011;65096;50.998;7.098;2023-02-19T07:20:10;17.77;;;7.97;;
76284;SDS011;65096;50.998;7.098;2023-02-19T07:22:38;18.35;;;8.50;;
76284;SDS011;65096;50.998;7.098;2023-02-19T07:25:05;16.13;;;8.05;;
76284;SDS011;65096;50.998;7.098;2023-02-19T07:27:32;16.73;;;7.50;;
76284;SDS011;65096;50.998;7.098;2023-02-19T07:30:00;17.17;;;7.93;;
76284;SDS011;65096;50.998;7.098;2023-02-19T07:32:27;16.13;;;8.02;;
76284;SDS011;65096;50.998;7.098;2023-02-19T07:34:53;18.48;;;7.50;;
76284;SDS011;65096;50.998;7.098;2023-02-19T07:37:20;17.92;;;7.55;;
76284;SDS011;65096;50.998;7.098;2023-02-19T07:39:47;15.25;;;7.25;;
76284;SDS011;65096;50.998;7.098;2023-02-19T07:42:14;19.20;;;8.20;;
76284;SDS011;65096;50.998;7.098;2023-02-19T07:44:42;15.23;;;7.35;;
76284;SDS011;65096;50.998;7.098;2023-02-19T07:47:10;18.10;;;7.05;;
76284;SDS011;65096;50.998;7.098;2023-02-19T07:49:37;15.23;;;7.15;;
76284;SDS011;65096;50.998;7.098;2023-02-19T07:52:03;16.75;;;7.50;;
76284;SDS011;65096;50.998;7.098;2023-02-19T07:54:30;20.08;;;6.57;;
76284;SDS011;65096;50.998;7.098;2023-02-19T07:56:57;15.35;;;6.90;;
76284;SDS011;65096;50.998;7.098;2023-02-19T07:59:23;12.65;;;6.72;;
76284;SDS011;65096;50.998;7.098;2023-02-19T08:01:50;13.38;;;5.90;;
76284;SDS011;65096;50.998;7.098;2023-02-19T08:04:36;15.20;;;6.95;;
76284;SDS011;65096;50.998;7.098;2023-02-19T08:07:02;13.07;;;5.75;;
76284;SDS011;65096;50.998;7.098;2023-02-19T08:09:29;15.00;;;6.07;;
76284;SDS011;65096;50.998;7.098;2023-02-19T08:11:56;16.05;;;8.07;;
76284;SDS011;65096;50.998;7.098;2023-02-19T08:14:41;14.52;;;6.65;;
76284;SDS011;65096;50.998;7.098;2023-02-19T08:17:09;14.63;;;7.18;;
76284;SDS011;65096;50.998;7.098;2023-02-19T08:19:37;19.67;;;7.93;;
76284;SDS011;65096;50.998;7.098;2023-02-19T08:22:04;14.93;;;7.05;;
76284;SDS011;65096;50.998;7.098;2023-02-19T08:24:30;16.55;;;6.10;;
76284;SDS011;65096;50.998;7.098;2023-02-19T08:26:58;14.93;;;7.38;;
76284;SDS011;65096;50.998;7.098;2023-02-19T08:29:25;16.30;;;7.03;;
76284;SDS011;65096;50.998;7.098;2023-02-19T08:31:51;17.30;;;7.20;;
76284;SDS011;65096;50.998;7.098;2023-02-19T08:34:18;16.88;;;7.38;;
76284;SDS011;65096;50.998;7.098;2023-02-19T08:36:46;18.50;;;6.85;;
76284;SDS011;65096;50.998;7.098;2023-02-19T08:39:13;15.23;;;6.60;;
76284;SDS011;65096;50.998;7.098;2023-02-19T08:41:39;15.57;;;6.75;;
76284;SDS011;65096;50.998;7.098;2023-02-19T08:44:06;18.00;;;7.03;;
76284;SDS011;65096;50.998;7.098;2023-02-19T08:46:33;16.98;;;7.28;;
76284;SDS011;65096;50.998;7.098;2023-02-19T08:49:00;18.77;;;7.97;;
76284;SDS011;65096;50.998;7.098;2023-02-19T08:51:26;19.25;;;6.63;;
76284;SDS011;65096;50.998;7.098;2023-02-19T08:53:54;18.00;;;7.05;;
76284;SDS011;65096;50.998;7.098;2023-02-19T08:56:21;11.10;;;5.80;;
76284;SDS011;65096;50.998;7.098;2023-02-19T08:58:48;21.20;;;7.38;;
76284;SDS011;65096;50.998;7.098;2023-02-19T09:01:15;17.05;;;7.53;;
76284;SDS011;65096;50.998;7.098;2023-02-19T09:03:43;14.63;;;6.93;;
76284;SDS011;65096;50.998;7.098;2023-02-19T09:06:11;18.92;;;7.03;;
76284;SDS011;65096;50.998;7.098;2023-02-19T09:08:40;18.33;;;6.93;;
76284;SDS011;65096;50.998;7.098;2023-02-19T09:11:08;15.15;;;6.90;;
76284;SDS011;65096;50.998;7.098;2023-02-19T09:13:35;15.25;;;7.15;;
76284;SDS011;65096;50.998;7.098;2023-02-19T09:16:02;16.85;;;6.35;;
76284;SDS011;65096;50.998;7.098;2023-02-19T09:18:29;17.75;;;6.63;;
76284;SDS011;65096;50.998;7.098;2023-02-19T09:20:58;19.80;;;6.53;;
76284;SDS011;65096;50.998;7.098;2023-02-19T09:23:25;14.50;;;5.55;;
76284;SDS011;65096;50.998;7.098;2023-02-19T09:25:55;18.65;;;6.55;;
76284;SDS011;65096;50.998;7.098;2023-02-19T09:28:23;14.00;;;6.53;;
76284;SDS011;65096;50.998;7.098;2023-02-19T09:30:50;14.98;;;7.10;;
76284;SDS011;65096;50.998;7.098;2023-02-19T09:33:17;15.32;;;5.93;;
76284;SDS011;65096;50.998;7.098;2023-02-19T09:35:44;14.48;;;6.10;;
76284;SDS011;65096;50.998;7.098;2023-02-19T09:38:10;15.82;;;6.38;;
76284;SDS011;65096;50.998;7.098;2023-02-19T09:40:40;16.98;;;6.82;;
76284;SDS011;65096;50.998;7.098;2023-02-19T09:43:07;18.42;;;6.03;;
76284;SDS011;65096;50.998;7.098;2023-02-19T09:45:39;16.23;;;6.13;;
76284;SDS011;65096;50.998;7.098;2023-02-19T09:48:09;15.02;;;6.22;;
76284;SDS011;65096;50.998;7.098;2023-02-19T09:50:40;13.98;;;6.07;;
76284;SDS011;65096;50.998;7.098;2023-02-19T09:53:11;13.02;;;5.20;;
76284;SDS011;65096;50.998;7.098;2023-02-19T09:55:44;12.10;;;5.07;;
76284;SDS011;65096;50.998;7.098;2023-02-19T09:58:16;17.92;;;5.60;;
76284;SDS011;65096;50.998;7.098;2023-02-19T10:00:53;14.32;;;5.28;;
76284;SDS011;65096;50.998;7.098;2023-02-19T10:03:21;14.55;;;4.68;;
76284;SDS011;65096;50.998;7.098;2023-02-19T10:05:55;13.68;;;5.25;;
76284;SDS011;65096;50.998;7.098;2023-02-19T10:08:23;13.88;;;4.82;;
76284;SDS011;65096;50.998;7.098;2023-02-19T10:10:50;13.65;;;4.57;;
76284;SDS011;65096;50.998;7.098;2023-02-19T10:13:19;12.70;;;5.05;;
76284;SDS011;65096;50.998;7.098;2023-02-19T10:15:48;14.70;;;4.72;;
76284;SDS011;65096;50.998;7.098;2023-02-19T10:18:19;9.23;;;3.17;;
76284;SDS011;65096;50.998;7.098;2023-02-19T10:20:48;13.02;;;4.45;;
76284;SDS011;65096;50.998;7.098;2023-02-19T10:23:17;11.52;;;3.63;;
76284;SDS011;65096;50.998;7.098;2023-02-19T10:25:45;13.43;;;4.30;;
76284;SDS011;65096;50.998;7.098;2023-02-19T10:28:15;13.63;;;4.20;;
76284;SDS011;65096;50.998;7.098;2023-02-19T10:30:43;11.55;;;3.90;;
76284;SDS011;65096;50.998;7.098;2023-02-19T10:35:54;11.18;;;3.58;;
76284;SDS011;65096;50.998;7.098;2023-02-19T10:38:23;14.77;;;4.63;;
76284;SDS011;65096;50.998;7.098;2023-02-19T10:40:58;10.48;;;4.20;;
76284;SDS011;65096;50.998;7.098;2023-02-19T10:43:28;10.65;;;4.72;;
76284;SDS011;65096;50.998;7.098;2023-02-19T10:45:58;11.93;;;5.70;;
76284;SDS011;65096;50.998;7.098;2023-02-19T10:48:29;11.45;;;5.30;;
76284;SDS011;65096;50.998;7.098;2023-02-19T10:51:00;15.05;;;6.35;;
76284;SDS011;65096;50.998;7.098;2023-02-19T10:53:41;11.25;;;5.97;;
76284;SDS011;65096;50.998;7.098;2023-02-19T10:56:10;14.80;;;6.57;;
76284;SDS011;65096;50.998;7.098;2023-02-19T10:58:40;14.88;;;6.72;;
76284;SDS011;65096;50.998;7.098;2023-02-19T11:01:12;13.02;;;5.95;;
76284;SDS011;65096;50.998;7.098;2023-02-19T11:03:43;14.15;;;6.13;;
76284;SDS011;65096;50.998;7.098;2023-02-19T11:06:13;12.48;;;5.85;;
76284;SDS011;65096;50.998;7.098;2023-02-19T11:08:51;15.27;;;6.53;;
76284;SDS011;65096;50.998;7.098;2023-02-19T11:11:21;12.57;;;5.32;;
76284;SDS011;65096;50.998;7.098;2023-02-19T11:13:49;11.75;;;4.22;;
76284;SDS011;65096;50.998;7.098;2023-02-19T11:16:17;13.63;;;5.35;;
76284;SDS011;65096;50.998;7.098;2023-02-19T11:18:43;11.75;;;5.13;;
76284;SDS011;65096;50.998;7.098;2023-02-19T11:21:24;12.73;;;5.30;;
76284;SDS011;65096;50.998;7.098;2023-02-19T11:23:57;16.17;;;6.07;;
76284;SDS011;65096;50.998;7.098;2023-02-19T11:26:25;11.82;;;5.60;;
76284;SDS011;65096;50.998;7.098;2023-02-19T11:28:56;10.73;;;5.45;;
76284;SDS011;65096;50.998;7.098;2023-02-19T11:31:24;12.40;;;5.72;;
76284;SDS011;65096;50.998;7.098;2023-02-19T11:33:57;12.55;;;5.45;;
76284;SDS011;65096;50.998;7.098;2023-02-19T11:36:27;16.00;;;6.30;;
76284;SDS011;65096;50.998;7.098;2023-02-19T11:38:56;14.02;;;5.32;;
76284;SDS011;65096;50.998;7.098;2023-02-19T11:41:30;13.20;;;5.82;;
76284;SDS011;65096;50.998;7.098;2023-02-19T11:44:15;11.50;;;4.57;;
76284;SDS011;65096;50.998;7.098;2023-02-19T11:46:56;12.68;;;5.93;;
76284;SDS011;65096;50.998;7.098;2023-02-19T11:49:34;11.05;;;4.70;;
76284;SDS011;65096;50.998;7.098;2023-02-19T11:52:13;10.18;;;4.13;;
76284;SDS011;65096;50.998;7.098;2023-02-19T11:54:51;11.98;;;4.80;;
76284;SDS011;65096;50.998;7.098;2023-02-19T11:57:29;8.82;;;2.55;;
76284;SDS011;65096;50.998;7.098;2023-02-19T12:00:14;9.52;;;4.40;;
76284;SDS011;65096;50.998;7.098;2023-02-19T12:02:59;9.00;;;3.90;;
76284;SDS011;65096;50.998;7.098;2023-02-19T12:17:14;10.30;;;3.95;;
76284;SDS011;65096;50.998;7.098;2023-02-19T12:19:55;9.55;;;4.32;;
76284;SDS011;65096;50.998;7.098;2023-02-19T12:22:32;10.02;;;3.80;;
76284;SDS011;65096;50.998;7.098;2023-02-19T12:25:16;10.00;;;4.20;;
76284;SDS011;65096;50.998;7.098;2023-02-19T12:28:07;6.25;;;2.92;;
76284;SDS011;65096;50.998;7.098;2023-02-19T12:30:52;10.38;;;4.22;;
76284;SDS011;65096;50.998;7.098;2023-02-19T12:33:50;9.13;;;3.92;;
76284;SDS011;65096;50.998;7.098;2023-02-19T12:36:31;10.27;;;4.10;;
76284;SDS011;65096;50.998;7.098;2023-02-19T12:39:09;10.13;;;4.20;;
76284;SDS011;65096;50.998;7.098;2023-02-19T12:41:48;11.50;;;4.90;;
76284;SDS011;65096;50.998;7.098;2023-02-19T12:44:24;11.07;;;4.65;;
76284;SDS011;65096;50.998;7.098;2023-02-19T12:46:59;11.43;;;4.90;;
76284;SDS011;65096;50.998;7.098;2023-02-19T12:49:30;10.07;;;3.60;;
76284;SDS011;65096;50.998;7.098;2023-02-19T12:52:07;9.20;;;4.38;;
76284;SDS011;65096;50.998;7.098;2023-02-19T12:54:39;9.05;;;3.65;;
76284;SDS011;65096;50.998;7.098;2023-02-19T12:57:11;10.20;;;4.28;;
76284;SDS011;65096;50.998;7.098;2023-02-19T12:59:42;8.15;;;3.67;;
76284;SDS011;65096;50.998;7.098;2023-02-19T13:02:15;9.88;;;3.80;;
76284;SDS011;65096;50.998;7.098;2023-02-19T13:04:48;8.40;;;3.67;;
76284;SDS011;65096;50.998;7.098;2023-02-19T13:07:22;8.15;;;3.28;;
76284;SDS011;65096;50.998;7.098;2023-02-19T13:09:53;8.77;;;3.50;;
76284;SDS011;65096;50.998;7.098;2023-02-19T13:12:24;8.25;;;3.80;;
76284;SDS011;65096;50.998;7.098;2023-02-19T13:14:55;7.85;;;3.15;;
76284;SDS011;65096;50.998;7.098;2023-02-19T13:17:27;8.40;;;3.13;;
76284;SDS011;65096;50.998;7.098;2023-02-19T13:20:00;8.90;;;3.47;;
76284;SDS011;65096;50.998;7.098;2023-02-19T13:22:34;7.05;;;2.83;;
76284;SDS011;65096;50.998;7.098;2023-02-19T13:25:27;5.82;;;2.45;;
76284;SDS011;65096;50.998;7.098;2023-02-19T13:28:19;6.55;;;2.28;;
76284;SDS011;65096;50.998;7.098;2023-02-19T13:31:11;5.90;;;2.25;;
76284;SDS011;65096;50.998;7.098;2023-02-19T13:33:53;6.50;;;2.00;;
76284;SDS011;65096;50.998;7.098;2023-02-19T13:36:28;5.35;;;1.98;;
76284;SDS011;65096;50.998;7.098;2023-02-19T13:38:55;5.63;;;2.00;;
76284;SDS011;65096;50.998;7.098;2023-02-19T13:41:28;6.75;;;2.00;;
76284;SDS011;65096;50.998;7.098;2023-02-19T13:43:59;7.22;;;2.30;;
76284;SDS011;65096;50.998;7.098;2023-02-19T13:46:34;7.32;;;2.40;;
76284;SDS011;65096;50.998;7.098;2023-02-19T14:01:20;6.13;;;2.45;;
76284;SDS011;65096;50.998;7.098;2023-02-19T14:04:43;5.75;;;2.47;;
76284;SDS011;65096;50.998;7.098;2023-02-19T14:07:33;7.43;;;2.47;;
76284;SDS011;65096;50.998;7.098;2023-02-19T14:10:03;8.20;;;2.65;;
76284;SDS011;65096;50.998;7.098;2023-02-19T14:12:36;5.63;;;2.17;;
76284;SDS011;65096;50.998;7.098;2023-02-19T14:21:14;8.73;;;3.17;;
76284;SDS011;65096;50.998;7.098;2023-02-19T14:23:43;9.25;;;4.18;;
76284;SDS011;65096;50.998;7.098;2023-02-19T14:26:15;7.70;;;3.90;;
76284;SDS011;65096;50.998;7.098;2023-02-19T14:28:42;11.57;;;4.38;;
76284;SDS011;65096;50.998;7.098;2023-02-19T14:33:59;8.35;;;3.63;;
76284;SDS011;65096;50.998;7.098;2023-02-19T14:36:34;8.32;;;4.13;;
76284;SDS011;65096;50.998;7.098;2023-02-19T14:39:09;8.80;;;4.20;;
76284;SDS011;65096;50.998;7.098;2023-02-19T14:41:40;8.75;;;3.85;;
76284;SDS011;65096;50.998;7.098;2023-02-19T14:44:13;7.13;;;3.47;;
76284;SDS011;65096;50.998;7.098;2023-02-19T14:46:44;9.23;;;3.78;;
76284;SDS011;65096;50.998;7.098;2023-02-19T14:49:18;10.07;;;4.18;;
76284;SDS011;65096;50.998;7.098;2023-02-19T14:51:54;9.27;;;3.22;;
76284;SDS011;65096;50.998;7.098;2023-02-19T14:54:30;8.07;;;3.38;;
76284;SDS011;65096;50.998;7.098;2023-02-19T14:57:03;8.50;;;3.58;;
76284;SDS011;65096;50.998;7.098;2023-02-19T14:59:33;7.72;;;3.88;;
76284;SDS011;65096;50.998;7.098;2023-02-19T15:02:11;12.43;;;4.30;;
76284;SDS011;65096;50.998;7.098;2023-02-19T15:04:40;8.10;;;4.28;;
76284;SDS011;65096;50.998;7.098;2023-02-19T15:07:09;9.65;;;4.20;;
76284;SDS011;65096;50.998;7.098;2023-02-19T15:09:41;12.15;;;4.90;;
76284;SDS011;65096;50.998;7.098;2023-02-19T15:12:13;9.82;;;4.45;;
76284;SDS011;65096;50.998;7.098;2023-02-19T15:14:42;9.45;;;4.70;;
76284;SDS011;65096;50.998;7.098;2023-02-19T15:17:11;12.82;;;4.55;;
76284;SDS011;65096;50.998;7.098;2023-02-19T15:19:44;11.15;;;4.65;;
76284;SDS011;65096;50.998;7.098;2023-02-19T15:22:13;10.75;;;4.38;;
76284;SDS011;65096;50.998;7.098;2023-02-19T15:24:44;9.75;;;4.45;;
76284;SDS011;65096;50.998;7.098;2023-02-19T15:27:14;11.02;;;4.88;;
76284;SDS011;65096;50.998;7.098;2023-02-19T15:29:44;11.20;;;4.68;;
76284;SDS011;65096;50.998;7.098;2023-02-19T15:32:14;10.38;;;4.65;;
76284;SDS011;65096;50.998;7.098;2023-02-19T15:34:44;10.55;;;4.80;;
76284;SDS011;65096;50.998;7.098;2023-02-19T15:37:20;13.85;;;5.65;;
76284;SDS011;65096;50.998;7.098;2023-02-19T15:39:48;12.88;;;5.53;;
76284;SDS011;65096;50.998;7.098;2023-02-19T15:42:17;12.80;;;5.22;;
76284;SDS011;65096;50.998;7.098;2023-02-19T15:44:48;11.52;;;4.97;;